Time;durP1;ratioP1;P1;durP2;ratioP2;P2;SDS_P1;SDS_P2;PMS_P1;PMS_P2;Temp;Humidity;BMP_temperature;BMP_pressure;BME280_temperature;BME280_humidity;BME280_pressure;Samples;Min_cycle;Max_cycle;Signal;HPM_P1;HPM_P2
2023/10/16 00:02:24;;;;;;;2.88;1.00;;;6.40;99.90;;;;;;4944412;28;20065;-72
2023/10/16 00:04:50;;;;;;;4.47;0.80;;;6.40;99.90;;;;;;4942660;28;20046;-71
2023/10/16 00:07:20;;;;;;;3.88;1.00;;;6.50;99.90;;;;;;4958168;28;20042;-72
2023/10/16 00:09:53;;;;;;;4.97;0.82;;;6.40;99.90;;;;;;4958563;28;20101;-72
2023/10/16 00:12:19;;;;;;;6.93;1.05;;;6.30;99.90;;;;;;4967231;28;20035;-72
2023/10/16 00:14:48;;;;;;;6.55;0.80;;;6.30;99.90;;;;;;4967802;28;20040;-72
2023/10/16 00:17:15;;;;;;;7.05;1.20;;;6.30;99.90;;;;;;4945377;28;20062;-72
2023/10/16 00:19:44;;;;;;;2.92;0.93;;;6.20;99.90;;;;;;4957488;28;20177;-73
2023/10/16 00:22:16;;;;;;;8.15;1.20;;;6.20;99.90;;;;;;4955809;28;20102;-72
2023/10/16 00:24:46;;;;;;;2.92;0.93;;;6.20;99.90;;;;;;4976670;28;20105;-72
2023/10/16 00:27:15;;;;;;;3.38;0.88;;;6.30;99.90;;;;;;4959308;28;20035;-72
2023/10/16 00:29:45;;;;;;;3.35;1.25;;;6.40;99.90;;;;;;4970242;28;20051;-72
2023/10/16 00:32:11;;;;;;;6.03;1.30;;;6.40;99.90;;;;;;4956076;28;20042;-72
2023/10/16 00:34:38;;;;;;;2.35;0.80;;;6.40;99.90;;;;;;4984932;28;20027;-72
2023/10/16 00:37:04;;;;;;;6.00;1.38;;;6.60;99.90;;;;;;4947606;28;20034;-71
2023/10/16 00:39:32;;;;;;;3.53;1.23;;;6.40;99.90;;;;;;4956359;28;20053;-71
2023/10/16 00:41:58;;;;;;;8.77;1.02;;;6.50;99.90;;;;;;4957401;28;20049;-68
2023/10/16 00:44:25;;;;;;;4.20;0.80;;;6.50;99.90;;;;;;4963491;28;20057;-69
2023/10/16 00:46:52;;;;;;;4.65;1.25;;;6.60;99.90;;;;;;4958205;28;20065;-69
2023/10/16 00:49:18;;;;;;;4.32;1.05;;;6.60;99.90;;;;;;4969002;28;20061;-70
2023/10/16 00:51:45;;;;;;;5.75;1.00;;;6.60;99.90;;;;;;4951462;28;20042;-70
2023/10/16 00:54:18;;;;;;;3.20;0.90;;;6.70;99.90;;;;;;4952714;28;20137;-72
2023/10/16 00:56:50;;;;;;;3.60;1.10;;;6.60;99.90;;;;;;4953566;28;20121;-72
2023/10/16 00:59:16;;;;;;;3.95;1.00;;;6.50;99.90;;;;;;4964130;28;20046;-72
2023/10/16 01:01:46;;;;;;;1.42;0.63;;;6.50;99.90;;;;;;4959453;28;20057;-72
2023/10/16 01:04:13;;;;;;;6.10;0.95;;;6.50;99.90;;;;;;4973737;28;20056;-72
2023/10/16 01:06:41;;;;;;;5.07;0.88;;;6.50;99.90;;;;;;4974484;28;20113;-73
2023/10/16 01:09:17;;;;;;;2.55;0.80;;;6.70;99.90;;;;;;4956923;28;20053;-72
2023/10/16 01:11:43;;;;;;;4.55;0.90;;;6.70;99.90;;;;;;4940478;28;20339;-72
2023/10/16 01:14:12;;;;;;;1.95;0.80;;;6.60;99.90;;;;;;4970955;28;20121;-72
2023/10/16 01:16:38;;;;;;;2.92;0.98;;;6.50;99.90;;;;;;4956740;28;20059;-73
2023/10/16 01:19:06;;;;;;;2.75;0.95;;;6.60;99.90;;;;;;4963897;28;20060;-72
2023/10/16 01:21:32;;;;;;;2.75;0.80;;;6.50;99.90;;;;;;4962956;28;20038;-73
2023/10/16 01:24:03;;;;;;;3.45;0.93;;;6.50;99.90;;;;;;4970240;28;20038;-72
2023/10/16 01:26:32;;;;;;;2.13;0.82;;;6.40;99.90;;;;;;4950585;28;20076;-74
2023/10/16 01:28:57;;;;;;;2.95;0.90;;;6.50;99.90;;;;;;4941063;28;20046;-72
2023/10/16 01:31:23;;;;;;;1.77;0.80;;;6.40;99.90;;;;;;4957368;28;20039;-74
2023/10/16 01:33:51;;;;;;;3.20;0.80;;;6.40;99.90;;;;;;4956408;28;20034;-72
2023/10/16 01:36:16;;;;;;;5.95;1.05;;;6.50;99.90;;;;;;4954221;28;20035;-72
2023/10/16 01:38:42;;;;;;;3.97;1.00;;;6.50;99.90;;;;;;4944572;28;20046;-72
2023/10/16 01:41:15;;;;;;;10.63;1.10;;;6.50;99.90;;;;;;4969203;28;20531;-73
2023/10/16 01:43:43;;;;;;;2.47;1.00;;;6.50;99.90;;;;;;4973768;28;20145;-73
2023/10/16 01:46:12;;;;;;;3.78;0.80;;;6.40;99.90;;;;;;4968853;28;20534;-73
2023/10/16 01:48:44;;;;;;;4.82;0.80;;;6.40;99.90;;;;;;4965123;28;20259;-72
2023/10/16 01:51:11;;;;;;;4.25;1.05;;;6.40;99.90;;;;;;4953613;28;20134;-72
2023/10/16 01:53:40;;;;;;;3.55;0.88;;;6.40;99.90;;;;;;4957976;28;20060;-73
2023/10/16 01:56:17;;;;;;;4.03;0.98;;;6.40;99.90;;;;;;4956630;28;20044;-72
2023/10/16 01:58:45;;;;;;;5.55;1.25;;;6.40;99.90;;;;;;4963662;28;20049;-72
2023/10/16 02:01:16;;;;;;;5.28;1.80;;;6.40;99.90;;;;;;4955788;28;20038;-73
2023/10/16 02:03:44;;;;;;;4.85;0.88;;;6.40;99.90;;;;;;4958367;28;20167;-72
2023/10/16 02:06:13;;;;;;;3.03;0.80;;;6.50;99.90;;;;;;4970204;28;20038;-72
2023/10/16 02:08:45;;;;;;;4.60;0.87;;;6.60;99.90;;;;;;4964677;28;20049;-72
2023/10/16 02:11:11;;;;;;;5.32;0.90;;;6.60;99.90;;;;;;4958389;28;20070;-73
2023/10/16 02:13:40;;;;;;;7.13;1.42;;;6.60;99.90;;;;;;4962603;28;20049;-71
2023/10/16 02:16:10;;;;;;;3.17;0.98;;;6.60;99.90;;;;;;4975718;28;20041;-69
2023/10/16 02:18:42;;;;;;;3.70;0.90;;;6.60;99.90;;;;;;4954755;28;20058;-70
2023/10/16 02:21:12;;;;;;;3.90;1.05;;;6.70;99.90;;;;;;4958857;28;20459;-71
2023/10/16 02:23:38;;;;;;;2.42;0.70;;;6.70;99.90;;;;;;4938456;28;20060;-71
2023/10/16 02:26:06;;;;;;;2.15;0.93;;;6.60;99.90;;;;;;4970835;28;20432;-72
2023/10/16 02:28:32;;;;;;;6.25;0.70;;;6.50;99.90;;;;;;4951648;28;20480;-71
2023/10/16 02:31:13;;;;;;;3.78;1.00;;;6.50;99.90;;;;;;4957803;28;20035;-72
2023/10/16 02:34:05;;;;;;;2.95;1.00;;;6.50;99.90;;;;;;4958189;28;20039;-72
2023/10/16 02:36:31;;;;;;;3.30;0.70;;;6.40;99.90;;;;;;4960410;28;20046;-71
2023/10/16 02:38:56;;;;;;;2.75;0.70;;;6.40;99.90;;;;;;4956827;28;20082;-72
2023/10/16 02:41:22;;;;;;;3.67;0.93;;;6.50;99.90;;;;;;4944833;28;20482;-72
2023/10/16 02:43:49;;;;;;;3.90;0.63;;;6.30;99.90;;;;;;4974867;28;20089;-72
2023/10/16 02:46:18;;;;;;;5.93;1.02;;;6.30;99.90;;;;;;4958659;28;20545;-72
2023/10/16 02:48:44;;;;;;;4.40;1.20;;;6.40;99.90;;;;;;4960377;28;20095;-73
2023/10/16 02:51:16;;;;;;;2.60;0.70;;;6.40;99.90;;;;;;4936012;28;20117;-73
2023/10/16 02:53:42;;;;;;;3.85;0.80;;;6.50;99.90;;;;;;4974445;28;20115;-72
2023/10/16 02:56:14;;;;;;;3.28;1.10;;;6.50;99.90;;;;;;4971442;28;20101;-72
2023/10/16 02:58:44;;;;;;;2.65;0.80;;;6.50;99.90;;;;;;4957322;28;20050;-72
2023/10/16 03:01:18;;;;;;;3.38;0.90;;;6.70;99.90;;;;;;4960233;28;20121;-73
2023/10/16 03:03:47;;;;;;;3.88;0.68;;;6.70;99.90;;;;;;4945401;28;20054;-72
2023/10/16 03:06:14;;;;;;;3.67;0.70;;;6.60;99.90;;;;;;4948441;28;20427;-72
2023/10/16 03:08:40;;;;;;;1.52;0.73;;;6.70;99.90;;;;;;4957133;28;20057;-72
2023/10/16 03:11:13;;;;;;;3.72;0.90;;;6.80;99.90;;;;;;4958907;28;20039;-74
2023/10/16 03:13:43;;;;;;;3.90;0.80;;;6.70;99.90;;;;;;4960265;28;20047;-72
2023/10/16 03:16:23;;;;;;;3.63;0.90;;;6.70;99.90;;;;;;4958900;28;20399;-71
2023/10/16 03:18:49;;;;;;;2.28;0.90;;;6.80;99.90;;;;;;4971707;28;20179;-73
2023/10/16 03:23:44;;;;;;;1.65;0.90;;;6.70;99.90;;;;;;4953503;28;20419;-71
2023/10/16 03:26:25;;;;;;;5.15;0.90;;;6.70;99.90;;;;;;4939819;28;20042;-72
2023/10/16 03:29:02;;;;;;;5.70;1.08;;;6.60;99.90;;;;;;4953660;28;20043;-73
2023/10/16 03:31:28;;;;;;;1.88;0.80;;;6.60;99.90;;;;;;4957485;28;20403;-73
2023/10/16 03:33:54;;;;;;;2.78;1.20;;;6.70;99.90;;;;;;4953995;28;20057;-72
2023/10/16 03:36:21;;;;;;;3.80;1.27;;;6.60;99.90;;;;;;4961509;28;20370;-73
2023/10/16 03:38:49;;;;;;;5.00;1.40;;;6.60;99.90;;;;;;4965883;28;20054;-72
2023/10/16 03:43:46;;;;;;;4.60;1.70;;;6.70;99.90;;;;;;4961422;28;20139;-72
2023/10/16 03:46:15;;;;;;;4.43;1.35;;;6.70;99.90;;;;;;4955361;28;20045;-72
2023/10/16 03:48:41;;;;;;;15.35;2.22;;;6.80;99.90;;;;;;4972001;28;20069;-72
2023/10/16 03:51:07;;;;;;;5.15;2.22;;;6.90;99.90;;;;;;4946574;28;21072;-74
2023/10/16 03:53:37;;;;;;;6.20;2.05;;;6.90;99.90;;;;;;4935195;28;20152;-72
2023/10/16 03:56:04;;;;;;;4.00;1.95;;;6.80;99.90;;;;;;4964857;28;20050;-72
2023/10/16 03:58:33;;;;;;;5.82;2.33;;;6.90;99.90;;;;;;4954187;28;20043;-71
2023/10/16 04:01:07;;;;;;;8.63;2.42;;;7.00;99.90;;;;;;4959595;28;20054;-71
2023/10/16 04:03:46;;;;;;;6.20;2.38;;;6.90;99.90;;;;;;4951528;28;20105;-72
2023/10/16 04:06:19;;;;;;;6.13;2.00;;;7.10;99.90;;;;;;4957926;28;20093;-72
2023/10/16 04:08:46;;;;;;;7.18;3.20;;;7.00;99.90;;;;;;4964518;28;20078;-72
2023/10/16 04:11:12;;;;;;;5.45;2.42;;;7.10;99.90;;;;;;4956340;28;20051;-72
2023/10/16 04:13:45;;;;;;;7.88;2.22;;;7.20;99.90;;;;;;4954221;28;20043;-73
2023/10/16 04:16:13;;;;;;;5.03;2.40;;;7.10;99.90;;;;;;4981239;28;20348;-72
2023/10/16 04:18:43;;;;;;;6.05;2.35;;;7.00;99.90;;;;;;4953984;28;20070;-72
2023/10/16 04:21:37;;;;;;;5.25;1.75;;;7.10;99.90;;;;;;4962691;28;20061;-73
2023/10/16 04:23:55;;;;;;;6.00;2.00;;;7.20;99.90;;;;;;4948269;28;20053;-71
2023/10/16 04:47:47;;;;;;;9.18;2.00;;;7.00;99.90;;;;;;4949922;28;20055;-72
2023/10/16 04:50:14;;;;;;;4.10;2.00;;;7.10;99.90;;;;;;4970957;28;20065;-72
2023/10/16 05:03:43;;;;;;;5.40;1.77;;;7.10;99.90;;;;;;4957376;28;20097;-73
2023/10/16 05:08:59;;;;;;;3.97;1.77;;;7.10;99.90;;;;;;4967930;28;20070;-72
2023/10/16 05:14:19;;;;;;;5.55;2.08;;;7.00;99.90;;;;;;4986443;28;20636;-72
2023/10/16 06:14:20;;;;;;;10.90;2.75;;;6.90;99.90;;;;;;4971583;28;20455;-73
2023/10/16 06:16:50;;;;;;;7.35;1.83;;;7.00;99.90;;;;;;4970975;28;20035;-73
2023/10/16 06:19:17;;;;;;;4.40;1.70;;;7.00;99.90;;;;;;4963919;28;20132;-73
2023/10/16 06:21:48;;;;;;;8.10;2.20;;;7.10;99.90;;;;;;4966125;28;20043;-73
2023/10/16 06:24:25;;;;;;;5.80;2.00;;;7.00;99.90;;;;;;4955402;28;20043;-73
2023/10/16 06:26:55;;;;;;;4.57;2.30;;;7.00;99.90;;;;;;4955623;28;20113;-74
2023/10/16 06:29:24;;;;;;;3.13;2.05;;;7.00;99.90;;;;;;4969578;28;20043;-74
2023/10/16 06:31:53;;;;;;;4.93;2.10;;;7.20;99.90;;;;;;4969451;28;20439;-72
2023/10/16 06:34:22;;;;;;;6.40;2.35;;;7.20;99.90;;;;;;4967563;28;20105;-73
2023/10/16 06:36:51;;;;;;;7.38;2.20;;;7.10;99.90;;;;;;4967783;28;20042;-73
2023/10/16 06:39:29;;;;;;;3.05;1.70;;;7.20;99.90;;;;;;4967468;28;20062;-72
2023/10/16 06:41:57;;;;;;;5.10;2.20;;;7.20;99.90;;;;;;4950230;28;20042;-73
2023/10/16 06:44:29;;;;;;;2.72;1.90;;;7.30;99.90;;;;;;4969555;28;20047;-74
2023/10/16 06:46:59;;;;;;;5.28;2.05;;;7.20;99.90;;;;;;4974259;28;20494;-72
2023/10/16 06:49:35;;;;;;;7.40;2.25;;;7.30;99.90;;;;;;4967752;28;20050;-74
2023/10/16 06:52:05;;;;;;;7.68;2.38;;;7.40;99.90;;;;;;4954663;28;20038;-72
2023/10/16 06:54:37;;;;;;;4.55;2.25;;;7.40;99.90;;;;;;4972698;28;20229;-74
2023/10/16 06:57:23;;;;;;;4.32;2.22;;;7.40;99.90;;;;;;4973896;28;20070;-72
2023/10/16 06:59:50;;;;;;;5.13;2.42;;;7.50;99.90;;;;;;4957936;28;20054;-73
2023/10/16 07:02:19;;;;;;;8.13;2.22;;;7.50;99.90;;;;;;4961920;28;20133;-73
2023/10/16 07:04:46;;;;;;;6.28;2.40;;;7.50;99.90;;;;;;4965959;28;20046;-73
2023/10/16 07:07:16;;;;;;;6.38;2.20;;;7.70;99.90;;;;;;4949925;28;20093;-73
2023/10/16 07:09:47;;;;;;;5.47;1.95;;;7.70;99.90;;;;;;4966477;28;20075;-72
2023/10/16 07:12:22;;;;;;;5.95;2.33;;;7.70;99.90;;;;;;4968158;28;20482;-73
2023/10/16 07:14:55;;;;;;;5.65;1.92;;;7.80;99.90;;;;;;4970158;28;20348;-74
2023/10/16 07:17:24;;;;;;;6.75;2.25;;;7.90;99.90;;;;;;4970228;28;20038;-73
2023/10/16 07:19:59;;;;;;;6.80;1.85;;;8.00;99.90;;;;;;4963191;28;20078;-73
2023/10/16 07:22:31;;;;;;;5.75;2.08;;;8.00;99.90;;;;;;4971089;28;20110;-73
2023/10/16 07:25:02;;;;;;;4.78;1.80;;;8.10;99.90;;;;;;4969971;28;20205;-74
2023/10/16 07:27:33;;;;;;;6.80;1.92;;;8.10;99.90;;;;;;4974365;28;20129;-76
2023/10/16 07:29:59;;;;;;;5.75;2.00;;;8.10;99.90;;;;;;4971034;28;20541;-75
2023/10/16 07:32:24;;;;;;;8.65;1.95;;;8.10;99.90;;;;;;4967477;28;20047;-74
2023/10/16 07:34:50;;;;;;;6.10;1.80;;;8.10;99.90;;;;;;4967828;28;20039;-72
2023/10/16 07:37:15;;;;;;;3.80;1.80;;;8.10;99.90;;;;;;4967096;28;20117;-73
2023/10/16 07:39:41;;;;;;;3.78;1.90;;;8.20;99.90;;;;;;4965011;28;20136;-77
2023/10/16 07:42:10;;;;;;;4.80;2.13;;;8.20;99.90;;;;;;4963003;28;20054;-75
2023/10/16 07:44:36;;;;;;;5.90;2.35;;;8.30;99.90;;;;;;4969381;28;20128;-75
2023/10/16 07:47:06;;;;;;;6.03;1.83;;;8.30;99.90;;;;;;4970152;28;20617;-74
2023/10/16 07:49:31;;;;;;;6.55;1.92;;;8.30;99.90;;;;;;4947072;28;20034;-73
2023/10/16 07:51:59;;;;;;;5.25;1.80;;;8.40;99.90;;;;;;4966782;28;20039;-73
2023/10/16 07:54:28;;;;;;;5.50;1.75;;;8.50;99.90;;;;;;4969152;28;20074;-75
2023/10/16 07:56:53;;;;;;;5.47;1.77;;;8.40;99.90;;;;;;4953476;28;20038;-74
2023/10/16 07:59:19;;;;;;;5.75;1.67;;;8.50;99.90;;;;;;4968178;28;20153;-74
2023/10/16 08:01:57;;;;;;;5.45;1.92;;;8.60;99.90;;;;;;4953658;28;20074;-73
2023/10/16 08:06:55;;;;;;;7.10;1.90;;;9.10;99.90;;;;;;4967525;28;20494;-74
2023/10/16 08:11:57;;;;;;;4.93;1.70;;;9.20;99.90;;;;;;4968886;28;20158;-75
2023/10/16 08:14:32;;;;;;;5.82;1.52;;;9.20;99.90;;;;;;4968791;28;20122;-74
2023/10/16 08:16:58;;;;;;;4.20;1.42;;;9.30;99.90;;;;;;4969545;28;20140;-74
2023/10/16 08:19:31;;;;;;;4.97;1.60;;;9.30;99.90;;;;;;4950450;28;20516;-74
2023/10/16 08:21:58;;;;;;;3.92;1.50;;;9.30;99.90;;;;;;4968985;28;20039;-75
2023/10/16 08:24:24;;;;;;;3.60;1.35;;;9.30;99.90;;;;;;4969002;28;20039;-74
2023/10/16 08:26:51;;;;;;;5.90;1.80;;;9.20;99.90;;;;;;4965543;28;20042;-75
2023/10/16 08:31:47;;;;;;;2.85;1.50;;;9.30;99.90;;;;;;4968354;28;20042;-74
2023/10/16 08:34:19;;;;;;;3.45;1.35;;;9.40;99.90;;;;;;4970954;28;20669;-75
2023/10/16 08:36:55;;;;;;;5.82;1.75;;;9.50;99.90;;;;;;4950791;28;20070;-74
2023/10/16 08:39:21;;;;;;;7.47;1.63;;;9.70;99.90;;;;;;4971372;28;20544;-73
2023/10/16 08:42:01;;;;;;;4.20;1.42;;;9.80;99.90;;;;;;4971293;28;20127;-74
2023/10/16 08:44:28;;;;;;;4.68;1.23;;;10.00;99.90;;;;;;4964504;28;20046;-75
2023/10/16 08:49:26;;;;;;;3.15;1.25;;;10.30;99.90;;;;;;4966343;28;20054;-75
2023/10/16 08:51:53;;;;;;;4.55;1.20;;;10.40;99.90;;;;;;4964362;28;20216;-75
2023/10/16 08:57:07;;;;;;;4.75;1.58;;;10.40;99.90;;;;;;4980520;28;20047;-75
2023/10/16 08:59:35;;;;;;;4.60;1.35;;;10.40;99.90;;;;;;4952187;28;20038;-76
2023/10/16 09:02:02;;;;;;;2.58;1.33;;;10.40;99.90;;;;;;4951913;28;20066;-72
2023/10/16 09:04:28;;;;;;;5.28;1.30;;;10.40;99.90;;;;;;4971496;28;20383;-75
2023/10/16 09:06:54;;;;;;;5.95;1.05;;;10.40;99.90;;;;;;4967020;28;20050;-75
2023/10/16 09:09:20;;;;;;;2.70;1.13;;;10.50;99.90;;;;;;4967880;28;20047;-75
2023/10/16 09:11:47;;;;;;;3.65;0.90;;;10.50;99.90;;;;;;4969788;28;20039;-75
2023/10/16 09:14:20;;;;;;;3.90;1.08;;;10.50;99.90;;;;;;4969968;28;20519;-75
2023/10/16 09:16:55;;;;;;;5.28;1.23;;;10.60;99.90;;;;;;4969519;28;20050;-75
2023/10/16 09:19:32;;;;;;;7.10;1.00;;;10.60;99.90;;;;;;4964063;28;20059;-75
2023/10/16 09:21:58;;;;;;;4.82;1.25;;;10.60;99.90;;;;;;4961759;28;20145;-76
2023/10/16 09:24:24;;;;;;;5.05;0.98;;;10.60;99.90;;;;;;4958762;28;20459;-76
2023/10/16 09:26:54;;;;;;;4.30;0.98;;;10.50;99.90;;;;;;4968975;28;20391;-76
2023/10/16 09:29:35;;;;;;;6.38;1.10;;;10.50;99.90;;;;;;4951204;28;20129;-77
2023/10/16 09:32:02;;;;;;;5.05;1.02;;;10.50;99.90;;;;;;4950599;28;20305;-77
2023/10/16 09:34:28;;;;;;;4.07;0.95;;;10.50;99.90;;;;;;4965693;28;20050;-76
2023/10/16 09:39:40;;;;;;;4.05;0.70;;;10.70;99.90;;;;;;4968732;28;20070;-76
2023/10/16 09:42:12;;;;;;;2.15;0.75;;;10.70;99.90;;;;;;4972384;28;20459;-75
2023/10/16 09:44:44;;;;;;;6.72;1.05;;;10.70;99.90;;;;;;4954897;28;20089;-76
2023/10/16 09:47:25;;;;;;;2.88;0.93;;;10.80;99.90;;;;;;4956111;28;20042;-77
2023/10/16 09:49:58;;;;;;;9.07;1.27;;;10.90;99.90;;;;;;4950583;28;20113;-75
2023/10/16 09:52:24;;;;;;;4.35;1.27;;;10.90;99.90;;;;;;4956099;28;20105;-76
2023/10/16 09:54:51;;;;;;;3.88;1.00;;;11.10;99.90;;;;;;4967725;28;20422;-76
2023/10/16 09:57:27;;;;;;;4.63;1.08;;;11.30;99.90;;;;;;4970322;28;20068;-75
2023/10/16 10:02:42;;;;;;;9.40;1.13;;;11.40;99.90;;;;;;4970474;28;20206;-76
2023/10/16 10:05:12;;;;;;;2.30;0.70;;;11.50;99.90;;;;;;4969344;28;20133;-75
2023/10/16 10:07:49;;;;;;;1.98;0.80;;;11.50;99.90;;;;;;4954986;28;20101;-76
2023/10/16 10:13:08;;;;;;;2.88;0.80;;;11.40;99.90;;;;;;4969567;28;20050;-74
2023/10/16 10:15:38;;;;;;;2.75;0.80;;;11.30;99.90;;;;;;4952913;28;20039;-75
2023/10/16 10:20:58;;;;;;;6.20;1.20;;;11.20;99.90;;;;;;4966996;28;20483;-75
2023/10/16 10:23:24;;;;;;;5.25;0.98;;;11.20;99.90;;;;;;4967679;28;20118;-76
2023/10/16 10:25:54;;;;;;;4.63;0.80;;;11.30;99.90;;;;;;4972978;28;20158;-74
2023/10/16 10:28:22;;;;;;;3.60;0.80;;;11.30;99.90;;;;;;4954269;28;20043;-75
2023/10/16 10:30:50;;;;;;;2.72;0.80;;;11.40;99.90;;;;;;4980322;28;20196;-74
2023/10/16 10:33:37;;;;;;;5.70;0.77;;;11.60;99.90;;;;;;4967767;28;20050;-74
2023/10/16 10:36:27;;;;;;;3.17;0.90;;;11.80;99.90;;;;;;4966232;28;21836;-75
2023/10/16 10:39:36;;;;;;;4.63;1.00;;;11.80;99.90;;;;;;4963927;28;20415;-74
2023/10/16 10:42:05;;;;;;;3.30;0.60;;;11.80;99.90;;;;;;4965405;28;20143;-76
2023/10/16 10:44:33;;;;;;;5.05;0.73;;;11.70;99.90;;;;;;4982600;28;20101;-76
2023/10/16 10:47:04;;;;;;;4.13;0.65;;;11.80;99.90;;;;;;4966503;28;20051;-74
2023/10/16 10:49:35;;;;;;;2.22;0.50;;;11.90;99.90;;;;;;4963170;28;20100;-74
2023/10/16 10:52:12;;;;;;;4.57;0.90;;;11.90;99.90;;;;;;4966341;28;20074;-75
2023/10/16 10:54:44;;;;;;;3.10;1.00;;;11.90;99.90;;;;;;4965191;28;20129;-73
2023/10/16 10:57:18;;;;;;;1.85;0.50;;;11.80;99.90;;;;;;4964042;28;20042;-75
2023/10/16 11:00:02;;;;;;;2.33;0.60;;;11.90;99.90;;;;;;4967312;28;20102;-74
2023/10/16 11:04:54;;;;;;;3.95;0.95;;;11.90;99.90;;;;;;4966418;28;20101;-75
2023/10/16 11:07:29;;;;;;;5.93;0.95;;;12.00;99.90;;;;;;4948849;28;20070;-74
2023/10/16 11:09:57;;;;;;;2.35;0.73;;;12.00;99.90;;;;;;4963812;28;20059;-75
2023/10/16 11:12:26;;;;;;;4.32;0.70;;;12.00;99.90;;;;;;4960868;28;21278;-74
2023/10/16 11:14:54;;;;;;;5.43;1.05;;;12.00;99.90;;;;;;4967217;28;20097;-74
2023/10/16 11:17:34;;;;;;;4.50;0.82;;;12.10;99.90;;;;;;4967319;28;20097;-73
2023/10/16 11:22:45;;;;;;;5.32;0.68;;;12.00;99.90;;;;;;4964700;28;20057;-72
2023/10/16 11:25:14;;;;;;;3.13;0.75;;;11.90;99.90;;;;;;4947394;28;20089;-72
2023/10/16 11:27:42;;;;;;;3.03;1.10;;;12.00;99.90;;;;;;4963569;28;20043;-73
2023/10/16 11:30:13;;;;;;;4.45;0.77;;;12.00;99.90;;;;;;4964011;28;20363;-72
2023/10/16 11:32:45;;;;;;;5.85;1.05;;;11.90;99.90;;;;;;4979463;28;20122;-72
2023/10/16 11:35:18;;;;;;;5.13;0.95;;;11.90;99.90;;;;;;4944499;28;20087;-72
2023/10/16 11:40:45;;;;;;;3.42;0.70;;;12.00;99.90;;;;;;4965331;28;20047;-72
2023/10/16 11:43:11;;;;;;;7.03;0.93;;;12.00;99.90;;;;;;4952404;28;20130;-72
2023/10/16 11:45:42;;;;;;;4.35;0.70;;;12.10;99.90;;;;;;4969513;28;20121;-73
2023/10/16 11:50:54;;;;;;;4.85;0.73;;;12.10;99.90;;;;;;4966977;28;20109;-72
2023/10/16 11:53:28;;;;;;;;;;;12.20;99.90;;;;;;4952980;28;20031;-74
2023/10/16 11:55:54;;;;;;;6.13;1.02;;;12.20;99.90;;;;;;4973987;28;19922;-72
2023/10/16 11:58:19;;;;;;;3.63;0.70;;;12.30;99.90;;;;;;4966262;28;20033;-73
2023/10/16 12:01:09;;;;;;;3.33;0.70;;;12.40;99.90;;;;;;4968811;28;20089;-72
2023/10/16 12:03:38;;;;;;;2.03;0.65;;;12.40;99.90;;;;;;4973940;28;20056;-73
2023/10/16 12:06:09;;;;;;;4.97;1.00;;;12.50;99.90;;;;;;4968297;28;20139;-73
2023/10/16 12:08:37;;;;;;;2.67;0.70;;;12.50;99.90;;;;;;4963869;28;20391;-74
2023/10/16 12:11:03;;;;;;;5.13;0.75;;;12.50;99.90;;;;;;4965854;28;20085;-72
2023/10/16 12:13:30;;;;;;;3.88;0.70;;;12.60;99.90;;;;;;4968412;28;20121;-73
2023/10/16 12:15:57;;;;;;;3.63;1.00;;;12.70;99.90;;;;;;4964577;28;20126;-73
2023/10/16 12:18:26;;;;;;;2.95;0.82;;;12.70;99.90;;;;;;4967505;28;20374;-72
2023/10/16 12:20:52;;;;;;;5.15;1.25;;;12.80;99.90;;;;;;4967329;28;20047;-72
2023/10/16 12:23:20;;;;;;;2.55;0.63;;;12.80;99.90;;;;;;4976448;28;20108;-73
2023/10/16 12:25:46;;;;;;;6.78;1.05;;;12.80;99.90;;;;;;4977685;28;20121;-72
2023/10/16 12:28:12;;;;;;;3.70;0.60;;;12.70;99.90;;;;;;4979647;28;20034;-71
2023/10/16 12:30:38;;;;;;;1.92;0.70;;;12.60;99.90;;;;;;4969690;28;20037;-72
2023/10/16 12:33:07;;;;;;;4.35;0.70;;;12.60;99.90;;;;;;4962324;28;20046;-72
2023/10/16 12:35:34;;;;;;;2.05;0.60;;;12.50;99.90;;;;;;4969079;28;20057;-72
2023/10/16 12:38:04;;;;;;;5.05;0.80;;;12.50;99.90;;;;;;4972290;28;20533;-72
2023/10/16 12:40:34;;;;;;;2.05;0.73;;;12.40;99.90;;;;;;4955423;28;20034;-72
2023/10/16 12:43:00;;;;;;;4.13;0.70;;;12.50;99.90;;;;;;4971959;28;20422;-72
2023/10/16 12:45:27;;;;;;;3.15;0.68;;;12.40;99.90;;;;;;4960785;28;20106;-71
2023/10/16 12:47:54;;;;;;;3.55;0.73;;;12.40;99.90;;;;;;4968291;28;20042;-71
2023/10/16 12:50:23;;;;;;;3.33;0.80;;;12.40;99.90;;;;;;4965789;28;20047;-71
2023/10/16 12:52:57;;;;;;;4.35;0.77;;;12.40;99.90;;;;;;4983673;28;20415;-71
2023/10/16 12:55:24;;;;;;;4.15;0.90;;;12.40;99.90;;;;;;4974431;28;20049;-71
2023/10/16 12:57:50;;;;;;;5.40;0.88;;;12.40;99.90;;;;;;4964136;28;20431;-71
2023/10/16 13:00:18;;;;;;;3.78;0.57;;;12.50;99.90;;;;;;4971353;28;20042;-71
2023/10/16 13:02:45;;;;;;;5.22;0.82;;;12.50;99.90;;;;;;4978922;28;20118;-71
2023/10/16 13:05:15;;;;;;;4.63;0.93;;;12.60;99.90;;;;;;4967453;28;20156;-71
2023/10/16 13:07:45;;;;;;;4.97;1.00;;;12.70;99.90;;;;;;4988970;28;20039;-72
2023/10/16 13:10:25;;;;;;;5.38;0.77;;;12.70;99.90;;;;;;4974697;28;20062;-71
2023/10/16 13:12:51;;;;;;;3.60;0.70;;;12.70;99.90;;;;;;4974557;28;20070;-71
2023/10/16 13:15:24;;;;;;;2.65;0.60;;;12.80;99.90;;;;;;4977005;28;20076;-71
2023/10/16 13:17:53;;;;;;;2.70;0.60;;;12.70;99.90;;;;;;4972738;28;20480;-71
2023/10/16 13:20:19;;;;;;;3.40;0.90;;;12.70;99.90;;;;;;4977547;28;20077;-71
2023/10/16 13:22:49;;;;;;;6.35;1.00;;;12.70;99.90;;;;;;4979092;28;20088;-71
2023/10/16 13:25:16;;;;;;;4.35;0.60;;;12.70;99.90;;;;;;4972630;28;20065;-71
2023/10/16 13:27:44;;;;;;;5.88;0.77;;;12.60;99.90;;;;;;4974402;28;20485;-71
2023/10/16 13:30:11;;;;;;;6.10;0.65;;;12.70;99.90;;;;;;4963893;28;20050;-71
2023/10/16 13:32:41;;;;;;;4.75;1.30;;;12.70;99.90;;;;;;4949724;28;20034;-71
2023/10/16 13:35:15;;;;;;;3.08;0.70;;;12.60;99.90;;;;;;4977964;28;20030;-72
2023/10/16 13:37:42;;;;;;;4.35;1.10;;;12.60;99.90;;;;;;4987197;28;20112;-72
2023/10/16 13:40:15;;;;;;;5.40;1.10;;;12.60;99.90;;;;;;4988308;28;20074;-71
2023/10/16 13:42:41;;;;;;;4.05;1.08;;;12.50;99.90;;;;;;4956702;28;20117;-71
2023/10/16 13:45:12;;;;;;;3.50;0.93;;;12.50;99.90;;;;;;4990279;28;20102;-71
2023/10/16 13:47:42;;;;;;;6.38;0.95;;;12.40;99.90;;;;;;4975036;28;20525;-71
2023/10/16 13:50:13;;;;;;;4.55;0.80;;;12.40;99.90;;;;;;4969803;28;20046;-70
2023/10/16 13:52:46;;;;;;;;;;;12.40;99.90;;;;;;4984100;28;20034;-71
2023/10/16 13:55:12;;;;;;;4.10;0.90;;;12.40;99.90;;;;;;4977727;28;19924;-70
2023/10/16 13:57:42;;;;;;;1.90;0.68;;;12.40;99.90;;;;;;4975722;28;20390;-71
2023/10/16 14:00:31;;;;;;;5.00;0.90;;;12.40;99.90;;;;;;4988552;28;20042;-71
2023/10/16 14:03:04;;;;;;;4.22;0.70;;;12.40;99.90;;;;;;4985852;28;20093;-71
2023/10/16 14:05:35;;;;;;;2.35;0.68;;;12.40;99.90;;;;;;4968886;28;20125;-71
2023/10/16 14:08:01;;;;;;;4.38;1.00;;;12.40;99.90;;;;;;4968917;28;20042;-72
2023/10/16 14:10:27;;;;;;;5.82;0.90;;;12.40;99.90;;;;;;4958931;28;20052;-71
2023/10/16 14:13:00;;;;;;;3.83;0.80;;;12.40;99.90;;;;;;4967417;28;20038;-70
2023/10/16 14:15:32;;;;;;;3.08;0.75;;;12.40;99.90;;;;;;4960620;28;20046;-72
2023/10/16 14:17:59;;;;;;;2.22;0.95;;;12.40;99.90;;;;;;4968617;28;20102;-71
2023/10/16 14:20:34;;;;;;;5.40;0.90;;;12.40;99.90;;;;;;4981754;28;20059;-71
2023/10/16 14:23:00;;;;;;;5.75;1.40;;;12.40;99.90;;;;;;4971893;28;20177;-70
2023/10/16 14:25:32;;;;;;;5.60;1.13;;;12.30;99.90;;;;;;4973639;28;20126;-70
2023/10/16 14:28:17;;;;;;;6.22;0.80;;;12.30;99.90;;;;;;4967378;28;20139;-71
2023/10/16 14:30:42;;;;;;;3.97;0.95;;;12.30;99.90;;;;;;4971697;28;20054;-71
2023/10/16 14:33:08;;;;;;;4.53;0.90;;;12.30;99.90;;;;;;4973720;28;20160;-70
2023/10/16 14:35:38;;;;;;;7.72;1.13;;;12.20;99.90;;;;;;4971551;28;20038;-70
2023/10/16 14:38:05;;;;;;;5.75;0.88;;;12.20;99.90;;;;;;4968466;28;20034;-71
2023/10/16 14:40:35;;;;;;;6.30;1.00;;;12.20;99.90;;;;;;4973767;28;20041;-71
2023/10/16 14:43:04;;;;;;;2.90;1.10;;;12.10;99.90;;;;;;4990826;28;20045;-71
2023/10/16 14:45:32;;;;;;;2.65;0.80;;;12.10;99.90;;;;;;4973324;28;20133;-70
2023/10/16 14:47:57;;;;;;;2.47;0.60;;;12.00;99.90;;;;;;4971967;28;20371;-69
2023/10/16 14:50:24;;;;;;;3.47;0.70;;;12.00;99.90;;;;;;4976550;28;20104;-70
2023/10/16 14:52:50;;;;;;;8.13;1.20;;;11.90;99.90;;;;;;4973316;28;20426;-69
2023/10/16 14:55:17;;;;;;;3.05;0.73;;;11.80;99.90;;;;;;4974714;28;20042;-68
2023/10/16 14:57:42;;;;;;;4.78;1.17;;;11.80;99.90;;;;;;4975012;28;20042;-69
2023/10/16 15:00:12;;;;;;;6.45;0.90;;;11.70;99.90;;;;;;4972154;28;20137;-68
2023/10/16 15:02:38;;;;;;;3.55;0.73;;;11.70;99.90;;;;;;4971337;28;20058;-68
2023/10/16 15:05:10;;;;;;;2.90;0.60;;;11.60;99.90;;;;;;4971428;28;20141;-69
2023/10/16 15:07:36;;;;;;;1.60;0.75;;;11.60;99.90;;;;;;4970354;28;20050;-69
2023/10/16 15:10:02;;;;;;;5.35;0.90;;;11.60;99.90;;;;;;4972867;28;20141;-68
2023/10/16 15:12:28;;;;;;;2.67;0.75;;;11.60;99.90;;;;;;4970377;28;20042;-69
2023/10/16 15:14:54;;;;;;;3.13;0.52;;;11.60;99.90;;;;;;4984838;28;20044;-69
2023/10/16 15:17:20;;;;;;;2.45;0.70;;;11.60;99.90;;;;;;4977350;28;20066;-69
2023/10/16 15:19:45;;;;;;;4.28;0.88;;;11.60;99.90;;;;;;4968415;28;20058;-70
2023/10/16 15:22:11;;;;;;;3.08;0.73;;;11.60;99.90;;;;;;4969441;28;20439;-70